Time,TemperatureF,DewpointF,PressureIn,WindDirection,WindDirectionDegrees,WindSpeedMPH,WindSpeedGustMPH,Humidity,HourlyPrecipIn,Conditions,Clouds,dailyrainin,SoftwareType,DateUTC
2013-03-06 00:00:00,24.8,11.3,30.18,ENE,68,2.0,3.0,56,0.00,,,0.00,meteohub,2013-03-06 07:00:00,
2013-03-06 00:05:00,24.6,11.1,30.18,SE,135,2.0,3.0,56,0.00,,,0.00,meteohub,2013-03-06 07:05:00,
2013-03-06 00:10:00,24.4,10.9,30.18,ESE,112,3.0,3.0,56,0.00,,,0.00,meteohub,2013-03-06 07:10:00,
2013-03-06 00:15:00,24.3,11.3,30.18,ESE,112,1.0,3.0,57,0.00,,,0.00,meteohub,2013-03-06 07:15:00,
2013-03-06 00:20:00,23.9,10.6,30.18,ESE,112,2.0,3.0,56,0.00,,,0.00,meteohub,2013-03-06 07:20:00,
2013-03-06 00:25:00,23.7,10.8,30.18,ESE,112,2.0,3.0,57,0.00,,,0.00,meteohub,2013-03-06 07:25:00,
2013-03-06 00:30:00,23.5,10.6,30.18,ESE,112,2.0,3.0,57,0.00,,,0.00,meteohub,2013-03-06 07:30:00,
2013-03-06 00:35:00,23.4,10.4,30.18,ESE,112,2.0,3.0,57,0.00,,,0.00,meteohub,2013-03-06 07:35:00,
2013-03-06 00:40:00,23.2,10.2,30.18,ESE,112,0.0,3.0,57,0.00,,,0.00,meteohub,2013-03-06 07:40:00,
2013-03-06 00:45:00,23.0,10.0,30.18,ESE,112,2.0,3.0,57,0.00,,,0.00,meteohub,2013-03-06 07:45:00,
2013-03-06 00:50:00,23.0,10.4,30.18,ESE,112,0.0,2.0,58,0.00,,,0.00,meteohub,2013-03-06 07:50:00,
2013-03-06 00:55:00,23.0,10.4,30.18,ESE,112,0.0,2.0,58,0.00,,,0.00,meteohub,2013-03-06 07:55:00,
2013-03-06 01:00:00,22.8,10.2,30.18,ESE,112,0.0,2.0,58,0.00,,,0.00,meteohub,2013-03-06 08:00:00,
2013-03-06 01:05:00,22.8,10.2,30.18,ESE,112,0.0,2.0,58,0.00,,,0.00,meteohub,2013-03-06 08:05:00,
2013-03-06 01:10:00,22.8,10.2,30.18,ESE,112,1.0,2.0,58,0.00,,,0.00,meteohub,2013-03-06 08:10:00,
2013-03-06 01:15:00,22.5,9.5,30.18,ESE,112,0.0,2.0,57,0.00,,,0.00,meteohub,2013-03-06 08:15:00,
2013-03-06 01:20:00,22.5,9.9,30.18,ESE,112,0.0,2.0,58,0.00,,,0.00,meteohub,2013-03-06 08:20:00,
2013-03-06 01:25:00,22.5,9.9,30.18,ESE,112,2.0,2.0,58,0.00,,,0.00,meteohub,2013-03-06 08:25:00,
2013-03-06 01:30:00,22.3,9.9,30.18,ESE,112,0.0,2.0,58,0.00,,,0.00,meteohub,2013-03-06 08:30:00,
2013-03-06 01:35:00,22.3,9.9,30.18,ESE,112,0.0,2.0,58,0.00,,,0.00,meteohub,2013-03-06 08:35:00,
2013-03-06 01:40:00,22.1,9.7,30.18,ESE,112,1.0,2.0,58,0.00,,,0.00,meteohub,2013-03-06 08:40:00,
2013-03-06 01:46:00,21.9,9.5,30.18,ESE,112,1.0,2.0,58,0.00,,,0.00,meteohub,2013-03-06 08:46:00,
2013-03-06 01:51:00,21.9,9.5,30.15,ESE,112,0.0,3.0,58,0.00,,,0.00,meteohub,2013-03-06 08:51:00,
2013-03-06 01:56:00,21.9,9.5,30.15,ESE,112,1.0,3.0,58,0.00,,,0.00,meteohub,2013-03-06 08:56:00,
2013-03-06 02:01:00,21.9,9.5,30.15,ESE,112,2.0,2.0,58,0.00,,,0.00,meteohub,2013-03-06 09:01:00,
2013-03-06 02:06:00,21.9,9.5,30.18,ESE,112,1.0,2.0,58,0.00,,,0.00,meteohub,2013-03-06 09:06:00,
2013-03-06 02:11:00,21.7,9.3,30.18,East,90,0.0,2.0,58,0.00,,,0.00,meteohub,2013-03-06 09:11:00,
2013-03-06 02:16:00,21.7,9.7,30.18,ENE,68,2.0,2.0,59,0.00,,,0.00,meteohub,2013-03-06 09:16:00,
2013-03-06 02:21:00,21.7,9.7,30.18,NNE,22,2.0,2.0,59,0.00,,,0.00,meteohub,2013-03-06 09:21:00,
2013-03-06 02:26:00,21.6,9.5,30.18,North,0,3.0,3.0,59,0.00,,,0.00,meteohub,2013-03-06 09:26:00,
2013-03-06 02:31:00,21.4,9.3,30.18,NNW,338,2.0,3.0,59,0.00,,,0.00,meteohub,2013-03-06 09:31:00,
2013-03-06 02:36:00,21.4,9.3,30.18,NW,315,3.0,3.0,59,0.00,,,0.00,meteohub,2013-03-06 09:36:00,
2013-03-06 02:41:00,21.4,9.3,30.18,WNW,292,1.0,3.0,59,0.00,,,0.00,meteohub,2013-03-06 09:41:00,
2013-03-06 02:46:00,21.4,9.3,30.18,WNW,292,2.0,3.0,59,0.00,,,0.00,meteohub,2013-03-06 09:46:00,
2013-03-06 02:51:00,21.4,9.3,30.18,WNW,292,1.0,3.0,59,0.00,,,0.00,meteohub,2013-03-06 09:51:00,
2013-03-06 02:56:00,21.2,9.5,30.18,WNW,292,3.0,3.0,60,0.00,,,0.00,meteohub,2013-03-06 09:56:00,
2013-03-06 03:01:00,21.2,9.5,30.18,NNW,338,3.0,3.0,60,0.00,,,0.00,meteohub,2013-03-06 10:01:00,
2013-03-06 03:06:00,21.2,9.9,30.15,NNW,338,3.0,4.0,61,0.00,,,0.00,meteohub,2013-03-06 10:06:00,
2013-03-06 03:11:00,21.2,9.9,30.15,NNW,338,1.0,4.0,61,0.00,,,0.00,meteohub,2013-03-06 10:11:00,
2013-03-06 03:16:00,21.0,9.7,30.12,NNW,338,2.0,6.0,61,0.00,,,0.00,meteohub,2013-03-06 10:16:00,
2013-03-06 03:21:00,21.2,9.9,30.12,North,0,3.0,6.0,61,0.00,,,0.00,meteohub,2013-03-06 10:21:00,
2013-03-06 03:26:00,21.2,9.9,30.12,NNW,338,3.0,6.0,61,0.00,,,0.00,meteohub,2013-03-06 10:26:00,
2013-03-06 03:31:00,21.2,9.9,30.12,NW,315,2.0,4.0,61,0.00,,,0.00,meteohub,2013-03-06 10:31:00,
2013-03-06 03:36:00,21.2,9.9,30.12,NW,315,0.0,4.0,61,0.00,,,0.00,meteohub,2013-03-06 10:36:00,
2013-03-06 03:41:00,21.4,10.0,30.12,WNW,292,3.0,4.0,61,0.00,,,0.00,meteohub,2013-03-06 10:41:00,
2013-03-06 03:46:00,21.2,9.9,30.12,West,270,0.0,4.0,61,0.00,,,0.00,meteohub,2013-03-06 10:46:00,
2013-03-06 03:52:00,21.4,10.0,30.12,NW,315,2.0,3.0,61,0.00,,,0.00,meteohub,2013-03-06 10:52:00,
2013-03-06 03:57:00,21.4,10.0,30.12,WSW,248,2.0,3.0,61,0.00,,,0.00,meteohub,2013-03-06 10:57:00,
2013-03-06 04:02:00,21.4,10.0,30.12,WNW,292,2.0,3.0,61,0.00,,,0.00,meteohub,2013-03-06 11:02:00,
2013-03-06 04:07:00,21.4,10.0,30.12,NNW,338,1.0,3.0,61,0.00,,,0.00,meteohub,2013-03-06 11:07:00,
2013-03-06 04:12:00,21.6,10.6,30.12,NNW,338,1.0,4.0,62,0.00,,,0.00,meteohub,2013-03-06 11:12:00,
2013-03-06 04:17:00,21.6,10.6,30.12,NNE,22,3.0,4.0,62,0.00,,,0.00,meteohub,2013-03-06 11:17:00,
2013-03-06 04:22:00,21.6,10.6,30.12,NNE,22,1.0,4.0,62,0.00,,,0.00,meteohub,2013-03-06 11:22:00,
2013-03-06 04:27:00,21.6,10.6,30.12,ENE,68,0.0,3.0,62,0.00,,,0.00,meteohub,2013-03-06 11:27:00,
2013-03-06 04:32:00,21.4,10.0,30.09,NE,45,0.0,3.0,61,0.00,,,0.00,meteohub,2013-03-06 11:32:00,
2013-03-06 04:37:00,21.4,10.4,30.09,SSE,158,2.0,3.0,62,0.00,,,0.00,meteohub,2013-03-06 11:37:00,
2013-03-06 04:42:00,21.4,10.4,30.09,SSE,158,2.0,4.0,62,0.00,,,0.00,meteohub,2013-03-06 11:42:00,
2013-03-06 04:47:00,21.4,10.4,30.12,ESE,112,3.0,4.0,62,0.00,,,0.00,meteohub,2013-03-06 11:47:00,
2013-03-06 04:52:00,21.2,10.2,30.12,SE,135,3.0,3.0,62,0.00,,,0.00,meteohub,2013-03-06 11:52:00,
2013-03-06 04:57:00,21.2,10.2,30.12,ENE,68,0.0,4.0,62,0.00,,,0.00,meteohub,2013-03-06 11:57:00,
2013-03-06 05:02:00,21.4,10.4,30.12,ESE,112,0.0,4.0,62,0.00,,,0.00,meteohub,2013-03-06 12:02:00,
2013-03-06 05:07:00,21.4,10.4,30.12,ENE,68,2.0,4.0,62,0.00,,,0.00,meteohub,2013-03-06 12:07:00,
2013-03-06 05:12:00,21.4,10.4,30.12,East,90,0.0,2.0,62,0.00,,,0.00,meteohub,2013-03-06 12:12:00,
2013-03-06 05:18:00,21.4,10.4,30.09,ESE,112,3.0,3.0,62,0.00,,,0.00,meteohub,2013-03-06 12:18:00,
2013-03-06 05:23:00,21.2,10.2,30.09,NE,45,2.0,4.0,62,0.00,,,0.00,meteohub,2013-03-06 12:23:00,
2013-03-06 05:28:00,21.4,10.4,30.09,ENE,68,0.0,4.0,62,0.00,,,0.00,meteohub,2013-03-06 12:28:00,
2013-03-06 05:33:00,21.4,10.8,30.12,NNE,22,1.0,4.0,63,0.00,,,0.00,meteohub,2013-03-06 12:33:00,
2013-03-06 05:38:00,21.4,10.8,30.12,ENE,68,2.0,3.0,63,0.00,,,0.00,meteohub,2013-03-06 12:38:00,
2013-03-06 05:43:00,21.4,10.8,30.12,ESE,112,0.0,3.0,63,0.00,,,0.00,meteohub,2013-03-06 12:43:00,
2013-03-06 05:48:00,21.4,10.8,30.12,NNE,22,3.0,3.0,63,0.00,,,0.00,meteohub,2013-03-06 12:48:00,
2013-03-06 05:53:00,21.4,10.8,30.12,ENE,68,2.0,3.0,63,0.00,,,0.00,meteohub,2013-03-06 12:53:00,
2013-03-06 05:58:00,21.4,10.8,30.12,NNE,22,2.0,3.0,63,0.00,,,0.00,meteohub,2013-03-06 12:58:00,
2013-03-06 06:03:00,21.2,10.6,30.09,NNW,338,3.0,3.0,63,0.00,,,0.00,meteohub,2013-03-06 13:03:00,
2013-03-06 06:08:00,21.2,10.9,30.09,North,0,2.0,4.0,64,0.00,,,0.00,meteohub,2013-03-06 13:08:00,
2013-03-06 06:13:00,21.4,10.8,30.09,NNE,22,3.0,4.0,63,0.00,,,0.00,meteohub,2013-03-06 13:13:00,
2013-03-06 06:18:00,21.4,10.8,30.12,NNE,22,0.0,4.0,63,0.00,,,0.00,meteohub,2013-03-06 13:18:00,
2013-03-06 06:23:00,21.4,10.8,30.12,North,0,4.0,4.0,63,0.00,,,0.00,meteohub,2013-03-06 13:23:00,
2013-03-06 06:29:00,21.4,10.8,30.12,NNW,338,1.0,4.0,63,0.00,,,0.00,meteohub,2013-03-06 13:29:00,
2013-03-06 06:34:00,21.6,11.3,30.12,North,0,1.0,4.0,64,0.00,,,0.00,meteohub,2013-03-06 13:34:00,
2013-03-06 06:39:00,21.6,11.3,30.12,NNE,22,1.0,4.0,64,0.00,,,0.00,meteohub,2013-03-06 13:39:00,
2013-03-06 06:44:00,21.7,11.5,30.12,North,0,1.0,3.0,64,0.00,,,0.00,meteohub,2013-03-06 13:44:00,
2013-03-06 06:49:00,22.1,11.8,30.12,NNE,22,2.0,3.0,64,0.00,,,0.00,meteohub,2013-03-06 13:49:00,
2013-03-06 06:54:00,22.3,12.0,30.12,NE,45,1.0,3.0,64,0.00,,,0.00,meteohub,2013-03-06 13:54:00,
2013-03-06 06:59:00,22.6,12.7,30.12,NNE,22,3.0,3.0,65,0.00,,,0.00,meteohub,2013-03-06 13:59:00,
2013-03-06 07:04:00,22.8,12.6,30.12,SSE,158,3.0,3.0,64,0.00,,,0.00,meteohub,2013-03-06 14:04:00,
2013-03-06 07:09:00,23.0,13.1,30.12,NNE,22,3.0,5.0,65,0.00,,,0.00,meteohub,2013-03-06 14:09:00,
2013-03-06 07:14:00,23.5,13.1,30.12,NE,45,1.0,5.0,64,0.00,,,0.00,meteohub,2013-03-06 14:14:00,
2013-03-06 07:19:00,24.1,13.6,30.12,NNW,338,0.0,5.0,64,0.00,,,0.00,meteohub,2013-03-06 14:19:00,
2013-03-06 07:24:00,24.4,14.0,30.12,ENE,68,2.0,3.0,64,0.00,,,0.00,meteohub,2013-03-06 14:24:00,
2013-03-06 07:29:00,24.8,14.4,30.12,NNE,22,1.0,3.0,64,0.00,,,0.00,meteohub,2013-03-06 14:29:00,
2013-03-06 07:34:00,25.2,14.4,30.12,SSE,158,3.0,3.0,63,0.00,,,0.00,meteohub,2013-03-06 14:34:00,
2013-03-06 07:39:00,25.3,14.5,30.12,East,90,2.0,3.0,63,0.00,,,0.00,meteohub,2013-03-06 14:39:00,
2013-03-06 07:44:00,25.9,15.4,30.12,ESE,112,3.0,3.0,64,0.00,,,0.00,meteohub,2013-03-06 14:44:00,
2013-03-06 07:49:00,26.1,15.6,30.12,SSE,158,2.0,3.0,64,0.00,,,0.00,meteohub,2013-03-06 14:49:00,
2013-03-06 07:54:00,26.6,16.2,30.12,SSE,158,5.0,5.0,64,0.00,,,0.00,meteohub,2013-03-06 14:54:00,
2013-03-06 07:59:00,27.0,16.0,30.12,SSE,158,4.0,5.0,63,0.00,,,0.00,meteohub,2013-03-06 14:59:00,
2013-03-06 08:04:00,27.3,16.3,30.12,SSE,158,4.0,5.0,63,0.00,,,0.00,meteohub,2013-03-06 15:04:00,
2013-03-06 08:09:00,27.7,16.7,30.12,SE,135,3.0,6.0,63,0.00,,,0.00,meteohub,2013-03-06 15:09:00,
2013-03-06 08:14:00,28.0,17.1,30.12,ESE,112,4.0,6.0,63,0.00,,,0.00,meteohub,2013-03-06 15:14:00,
2013-03-06 08:20:00,28.6,17.2,30.12,ESE,112,3.0,6.0,62,0.00,,,0.00,meteohub,2013-03-06 15:20:00,
2013-03-06 08:25:00,29.1,17.8,30.12,SE,135,3.0,6.0,62,0.00,,,0.00,meteohub,2013-03-06 15:25:00,
2013-03-06 08:30:00,29.5,17.8,30.12,ESE,112,1.0,4.0,61,0.00,,,0.00,meteohub,2013-03-06 15:30:00,
2013-03-06 08:35:00,30.2,18.3,30.09,ESE,112,1.0,4.0,61,0.00,,,0.00,meteohub,2013-03-06 15:35:00,
2013-03-06 08:40:00,30.7,18.5,30.09,ESE,112,4.0,4.0,60,0.00,,,0.00,meteohub,2013-03-06 15:40:00,
2013-03-06 08:45:00,31.1,18.1,30.09,ESE,112,4.0,5.0,58,0.00,,,0.00,meteohub,2013-03-06 15:45:00,
2013-03-06 08:50:00,31.6,18.5,30.12,ESE,112,3.0,5.0,58,0.00,,,0.00,meteohub,2013-03-06 15:50:00,
2013-03-06 08:55:00,32.0,18.1,30.12,ENE,68,2.0,5.0,56,0.00,,,0.00,meteohub,2013-03-06 15:55:00,
2013-03-06 09:00:00,32.5,18.7,30.12,SE,135,2.0,5.0,56,0.00,,,0.00,meteohub,2013-03-06 16:00:00,
2013-03-06 09:05:00,33.3,19.2,30.12,SSE,158,4.0,5.0,56,0.00,,,0.00,meteohub,2013-03-06 16:05:00,
2013-03-06 09:10:00,33.8,19.4,30.12,ESE,112,3.0,4.0,55,0.00,,,0.00,meteohub,2013-03-06 16:10:00,
2013-03-06 09:15:00,34.5,20.1,30.12,ESE,112,1.0,6.0,55,0.00,,,0.00,meteohub,2013-03-06 16:15:00,
2013-03-06 09:20:00,35.1,20.1,30.12,WNW,292,2.0,6.0,54,0.00,,,0.00,meteohub,2013-03-06 16:20:00,
2013-03-06 09:25:00,35.2,19.9,30.12,ENE,68,3.0,6.0,53,0.00,,,0.00,meteohub,2013-03-06 16:25:00,
2013-03-06 09:30:00,35.6,20.1,30.12,ESE,112,1.0,6.0,53,0.00,,,0.00,meteohub,2013-03-06 16:30:00,
2013-03-06 09:35:00,35.8,19.9,30.12,SSE,158,2.0,6.0,52,0.00,,,0.00,meteohub,2013-03-06 16:35:00,
2013-03-06 09:40:00,36.3,20.5,30.12,ENE,68,4.0,5.0,52,0.00,,,0.00,meteohub,2013-03-06 16:40:00,
2013-03-06 09:45:00,36.5,20.1,30.12,NNE,22,2.0,6.0,51,0.00,,,0.00,meteohub,2013-03-06 16:45:00,
2013-03-06 09:50:00,36.5,20.1,30.12,ENE,68,2.0,6.0,51,0.00,,,0.00,meteohub,2013-03-06 16:50:00,
2013-03-06 09:55:00,36.9,20.5,30.12,SSE,158,2.0,6.0,51,0.00,,,0.00,meteohub,2013-03-06 16:55:00,
2013-03-06 10:00:00,37.2,20.8,30.12,ESE,112,4.0,6.0,51,0.00,,,0.00,meteohub,2013-03-06 17:00:00,
2013-03-06 10:05:00,37.6,21.2,30.12,NNE,22,3.0,7.0,51,0.00,,,0.00,meteohub,2013-03-06 17:05:00,
2013-03-06 10:10:00,37.8,20.8,30.12,ESE,112,4.0,7.0,50,0.00,,,0.00,meteohub,2013-03-06 17:10:00,
2013-03-06 10:16:00,38.5,21.6,30.12,SSE,158,8.0,9.0,50,0.00,,,0.00,meteohub,2013-03-06 17:16:00,
2013-03-06 10:21:00,39.0,21.9,30.09,SSE,158,4.0,10.0,50,0.00,,,0.00,meteohub,2013-03-06 17:21:00,
2013-03-06 10:26:00,39.4,21.9,30.09,ESE,112,9.0,10.0,49,0.00,,,0.00,meteohub,2013-03-06 17:26:00,
2013-03-06 10:31:00,39.6,22.1,30.09,ESE,112,3.0,10.0,49,0.00,,,0.00,meteohub,2013-03-06 17:31:00,
2013-03-06 10:36:00,40.1,22.1,30.09,SSE,158,8.0,10.0,48,0.00,,,0.00,meteohub,2013-03-06 17:36:00,
2013-03-06 10:41:00,40.5,22.3,30.09,SSE,158,4.0,11.0,48,0.00,,,0.00,meteohub,2013-03-06 17:41:00,
2013-03-06 10:46:00,40.5,22.3,30.09,SSE,158,3.0,11.0,48,0.00,,,0.00,meteohub,2013-03-06 17:46:00,
2013-03-06 10:51:00,40.6,22.1,30.09,SSE,158,6.0,8.0,47,0.00,,,0.00,meteohub,2013-03-06 17:51:00,
2013-03-06 10:56:00,40.8,21.7,30.09,SSE,158,2.0,8.0,46,0.00,,,0.00,meteohub,2013-03-06 17:56:00,
2013-03-06 11:01:00,41.0,21.9,30.09,West,270,2.0,8.0,46,0.00,,,0.00,meteohub,2013-03-06 18:01:00,
2013-03-06 11:06:00,41.0,21.4,30.09,SSE,158,2.0,8.0,45,0.00,,,0.00,meteohub,2013-03-06 18:06:00,
2013-03-06 11:11:00,41.2,21.6,30.09,SSE,158,4.0,8.0,45,0.00,,,0.00,meteohub,2013-03-06 18:11:00,
2013-03-06 11:16:00,41.5,21.7,30.09,ESE,112,7.0,8.0,45,0.00,,,0.00,meteohub,2013-03-06 18:16:00,
2013-03-06 11:21:00,42.1,22.3,30.09,SSE,158,8.0,8.0,45,0.00,,,0.00,meteohub,2013-03-06 18:21:00,
2013-03-06 11:26:00,42.3,22.5,30.09,NNW,338,2.0,10.0,45,0.00,,,0.00,meteohub,2013-03-06 18:26:00,
2013-03-06 11:31:00,42.4,22.1,30.09,SSE,158,4.0,10.0,44,0.00,,,0.00,meteohub,2013-03-06 18:31:00,
2013-03-06 11:37:00,42.8,22.5,30.09,ESE,112,6.0,10.0,44,0.00,,,0.00,meteohub,2013-03-06 18:37:00,
2013-03-06 11:42:00,43.2,22.8,30.09,NNE,22,3.0,6.0,44,0.00,,,0.00,meteohub,2013-03-06 18:42:00,
2013-03-06 11:47:00,43.5,22.6,30.06,ESE,112,6.0,9.0,43,0.00,,,0.00,meteohub,2013-03-06 18:47:00,
2013-03-06 11:52:00,43.9,22.3,30.06,ESE,112,2.0,9.0,42,0.00,,,0.00,meteohub,2013-03-06 18:52:00,
2013-03-06 11:57:00,44.1,22.5,30.06,SSE,158,4.0,7.0,42,0.00,,,0.00,meteohub,2013-03-06 18:57:00,
2013-03-06 12:02:00,44.4,22.8,30.03,ESE,112,6.0,7.0,42,0.00,,,0.00,meteohub,2013-03-06 19:02:00,
2013-03-06 12:07:00,44.8,22.6,30.03,SSE,158,3.0,6.0,41,0.00,,,0.00,meteohub,2013-03-06 19:07:00,
2013-03-06 12:12:00,45.1,22.3,30.03,East,90,3.0,6.0,40,0.00,,,0.00,meteohub,2013-03-06 19:12:00,
2013-03-06 12:17:00,45.7,22.8,30.06,ESE,112,3.0,6.0,40,0.00,,,0.00,meteohub,2013-03-06 19:17:00,
2013-03-06 12:22:00,46.0,23.2,30.06,SSE,158,6.0,7.0,40,0.00,,,0.00,meteohub,2013-03-06 19:22:00,
2013-03-06 12:27:00,46.2,23.4,30.06,NE,45,2.0,8.0,40,0.00,,,0.00,meteohub,2013-03-06 19:27:00,
2013-03-06 12:32:00,46.4,22.8,30.06,SSE,158,6.0,8.0,39,0.00,,,0.00,meteohub,2013-03-06 19:32:00,
2013-03-06 12:37:00,46.6,22.5,30.06,ESE,112,3.0,9.0,38,0.00,,,0.00,meteohub,2013-03-06 19:37:00,
2013-03-06 12:42:00,47.1,23.5,30.06,SSE,158,5.0,9.0,39,0.00,,,0.00,meteohub,2013-03-06 19:42:00,
2013-03-06 12:47:00,47.1,22.8,30.03,SSE,158,3.0,10.0,38,0.00,,,0.00,meteohub,2013-03-06 19:47:00,
2013-03-06 12:52:00,47.1,22.8,30.03,SSE,158,9.0,10.0,38,0.00,,,0.00,meteohub,2013-03-06 19:52:00,
2013-03-06 12:57:00,47.7,23.9,30.03,SSE,158,7.0,9.0,39,0.00,,,0.00,meteohub,2013-03-06 19:57:00,
2013-03-06 13:02:00,47.8,23.5,30.03,SE,135,3.0,9.0,38,0.00,,,0.00,meteohub,2013-03-06 20:02:00,
2013-03-06 13:07:00,48.2,23.9,30.03,SSE,158,8.0,9.0,38,0.00,,,0.00,meteohub,2013-03-06 20:07:00,
2013-03-06 13:12:00,48.4,24.1,30.03,ESE,112,5.0,8.0,38,0.00,,,0.00,meteohub,2013-03-06 20:12:00,
2013-03-06 13:18:00,48.6,24.1,30.00,SSE,158,8.0,11.0,38,0.00,,,0.00,meteohub,2013-03-06 20:18:00,
2013-03-06 13:23:00,48.7,24.3,30.00,ESE,112,3.0,11.0,38,0.00,,,0.00,meteohub,2013-03-06 20:23:00,
2013-03-06 13:28:00,48.7,24.3,30.00,SSE,158,8.0,11.0,38,0.00,,,0.00,meteohub,2013-03-06 20:28:00,
2013-03-06 13:33:00,48.9,23.9,30.00,SSE,158,7.0,11.0,37,0.00,,,0.00,meteohub,2013-03-06 20:33:00,
2013-03-06 13:38:00,48.9,23.9,30.00,ESE,112,3.0,11.0,37,0.00,,,0.00,meteohub,2013-03-06 20:38:00,
2013-03-06 13:43:00,49.1,24.1,30.00,SSE,158,5.0,10.0,37,0.00,,,0.00,meteohub,2013-03-06 20:43:00,
2013-03-06 13:48:00,49.1,24.1,29.97,SSE,158,5.0,10.0,37,0.00,,,0.00,meteohub,2013-03-06 20:48:00,
2013-03-06 13:53:00,49.3,24.1,29.97,South,180,5.0,8.0,37,0.00,,,0.00,meteohub,2013-03-06 20:53:00,
2013-03-06 13:58:00,49.8,24.6,29.97,SSE,158,4.0,8.0,37,0.00,,,0.00,meteohub,2013-03-06 20:58:00,
2013-03-06 14:03:00,50.0,24.8,29.97,SSE,158,6.0,9.0,37,0.00,,,0.00,meteohub,2013-03-06 21:03:00,
2013-03-06 14:08:00,50.2,25.0,29.97,ENE,68,3.0,9.0,37,0.00,,,0.00,meteohub,2013-03-06 21:08:00,
2013-03-06 14:13:00,50.4,25.2,29.97,ESE,112,7.0,9.0,37,0.00,,,0.00,meteohub,2013-03-06 21:13:00,
2013-03-06 14:18:00,50.7,25.5,30.00,SSE,158,6.0,8.0,37,0.00,,,0.00,meteohub,2013-03-06 21:18:00,
2013-03-06 14:23:00,51.3,25.3,30.00,ESE,112,4.0,8.0,36,0.00,,,0.00,meteohub,2013-03-06 21:23:00,
2013-03-06 14:29:00,51.4,25.3,30.00,SSE,158,9.0,9.0,36,0.00,,,0.00,meteohub,2013-03-06 21:29:00,
2013-03-06 14:34:00,51.4,25.3,30.00,SSE,158,5.0,11.0,36,0.00,,,0.00,meteohub,2013-03-06 21:34:00,
2013-03-06 14:39:00,51.3,23.9,30.00,SSE,158,8.0,11.0,34,0.00,,,0.00,meteohub,2013-03-06 21:39:00,
2013-03-06 14:44:00,51.1,23.7,30.00,SE,135,11.0,11.0,34,0.00,,,0.00,meteohub,2013-03-06 21:44:00,
2013-03-06 14:49:00,51.3,23.9,30.00,SSE,158,8.0,14.0,34,0.00,,,0.00,meteohub,2013-03-06 21:49:00,
2013-03-06 14:54:00,52.0,24.6,30.00,SE,135,6.0,14.0,34,0.00,,,0.00,meteohub,2013-03-06 21:54:00,
2013-03-06 14:59:00,52.3,25.5,30.00,SSE,158,3.0,14.0,35,0.00,,,0.00,meteohub,2013-03-06 21:59:00,
2013-03-06 15:04:00,52.2,24.6,29.97,SSE,158,6.0,13.0,34,0.00,,,0.00,meteohub,2013-03-06 22:04:00,
2013-03-06 15:09:00,51.4,24.1,29.97,ESE,112,6.0,13.0,34,0.00,,,0.00,meteohub,2013-03-06 22:09:00,
2013-03-06 15:14:00,51.1,24.4,29.97,ESE,112,4.0,13.0,35,0.00,,,0.00,meteohub,2013-03-06 22:14:00,
2013-03-06 15:19:00,51.3,25.3,29.97,ESE,112,4.0,11.0,36,0.00,,,0.00,meteohub,2013-03-06 22:19:00,
2013-03-06 15:24:00,51.6,25.5,29.97,SE,135,4.0,10.0,36,0.00,,,0.00,meteohub,2013-03-06 22:24:00,
2013-03-06 15:29:00,51.6,25.5,29.97,ESE,112,6.0,10.0,36,0.00,,,0.00,meteohub,2013-03-06 22:29:00,
2013-03-06 15:34:00,51.3,25.3,29.97,SE,135,8.0,9.0,36,0.00,,,0.00,meteohub,2013-03-06 22:34:00,
2013-03-06 15:39:00,51.3,25.3,29.97,ESE,112,6.0,9.0,36,0.00,,,0.00,meteohub,2013-03-06 22:39:00,
2013-03-06 15:44:00,51.3,25.3,29.97,SSE,158,11.0,11.0,36,0.00,,,0.00,meteohub,2013-03-06 22:44:00,
2013-03-06 15:49:00,51.6,25.5,29.97,SSE,158,8.0,12.0,36,0.00,,,0.00,meteohub,2013-03-06 22:49:00,
2013-03-06 15:54:00,51.6,25.5,29.97,SSE,158,5.0,13.0,36,0.00,,,0.00,meteohub,2013-03-06 22:54:00,
2013-03-06 15:59:00,51.8,25.7,29.97,East,90,5.0,13.0,36,0.00,,,0.00,meteohub,2013-03-06 22:59:00,
2013-03-06 16:05:00,51.8,25.7,29.97,SSE,158,5.0,13.0,36,0.00,,,0.00,meteohub,2013-03-06 23:05:00,
2013-03-06 16:10:00,51.8,25.7,29.97,SSE,158,4.0,10.0,36,0.00,,,0.00,meteohub,2013-03-06 23:10:00,
2013-03-06 16:15:00,51.6,25.5,29.97,SSE,158,4.0,10.0,36,0.00,,,0.00,meteohub,2013-03-06 23:15:00,
2013-03-06 16:20:00,51.6,25.5,29.97,ESE,112,4.0,9.0,36,0.00,,,0.00,meteohub,2013-03-06 23:20:00,
2013-03-06 16:25:00,51.4,26.1,29.97,South,180,3.0,8.0,37,0.00,,,0.00,meteohub,2013-03-06 23:25:00,
2013-03-06 16:30:00,51.4,26.1,29.97,ENE,68,4.0,8.0,37,0.00,,,0.00,meteohub,2013-03-06 23:30:00,
2013-03-06 16:35:00,51.1,25.7,29.97,ENE,68,4.0,8.0,37,0.00,,,0.00,meteohub,2013-03-06 23:35:00,
2013-03-06 16:40:00,51.1,25.7,29.97,ENE,68,4.0,7.0,37,0.00,,,0.00,meteohub,2013-03-06 23:40:00,
2013-03-06 16:45:00,50.9,25.5,29.97,ESE,112,2.0,6.0,37,0.00,,,0.00,meteohub,2013-03-06 23:45:00,
2013-03-06 16:50:00,50.7,25.5,29.97,ESE,112,3.0,6.0,37,0.00,,,0.00,meteohub,2013-03-06 23:50:00,
2013-03-06 16:55:00,50.5,25.3,29.97,ESE,112,4.0,5.0,37,0.00,,,0.00,meteohub,2013-03-06 23:55:00,
2013-03-06 17:00:00,50.5,25.3,29.97,ENE,68,1.0,4.0,37,0.00,,,0.00,meteohub,2013-03-07 00:00:00,
2013-03-06 17:05:00,50.2,25.0,29.97,ESE,112,2.0,4.0,37,0.00,,,0.00,meteohub,2013-03-07 00:05:00,
2013-03-06 17:10:00,50.0,24.8,29.97,ENE,68,3.0,4.0,37,0.00,,,0.00,meteohub,2013-03-07 00:10:00,
2013-03-06 17:15:00,49.6,25.2,29.97,ESE,112,2.0,3.0,38,0.00,,,0.00,meteohub,2013-03-07 00:15:00,
2013-03-06 17:20:00,49.5,25.0,29.97,NE,45,3.0,3.0,38,0.00,,,0.00,meteohub,2013-03-07 00:20:00,
2013-03-06 17:25:00,49.1,24.6,29.97,ENE,68,1.0,4.0,38,0.00,,,0.00,meteohub,2013-03-07 00:25:00,
2013-03-06 17:30:00,48.9,24.4,29.97,SSE,158,2.0,4.0,38,0.00,,,0.00,meteohub,2013-03-07 00:30:00,
2013-03-06 17:35:00,48.6,24.1,29.97,SSE,158,2.0,4.0,38,0.00,,,0.00,meteohub,2013-03-07 00:35:00,
2013-03-06 17:40:00,47.7,23.4,29.97,SSE,158,2.0,4.0,38,0.00,,,0.00,meteohub,2013-03-07 00:40:00,
2013-03-06 17:45:00,47.3,23.0,29.97,ENE,68,2.0,4.0,38,0.00,,,0.00,meteohub,2013-03-07 00:45:00,
2013-03-06 17:51:00,46.9,23.4,29.97,NNE,22,2.0,4.0,39,0.00,,,0.00,meteohub,2013-03-07 00:51:00,
2013-03-06 17:56:00,46.8,23.2,29.97,NE,45,0.0,3.0,39,0.00,,,0.00,meteohub,2013-03-07 00:56:00,
2013-03-06 18:01:00,46.4,22.8,29.97,East,90,1.0,3.0,39,0.00,,,0.00,meteohub,2013-03-07 01:01:00,
2013-03-06 18:06:00,45.9,22.3,29.97,ESE,112,0.0,3.0,39,0.00,,,0.00,meteohub,2013-03-07 01:06:00,
2013-03-06 18:11:00,45.5,22.1,29.97,ESE,112,0.0,3.0,39,0.00,,,0.00,meteohub,2013-03-07 01:11:00,
2013-03-06 18:16:00,45.1,22.3,29.97,SSE,158,3.0,3.0,40,0.00,,,0.00,meteohub,2013-03-07 01:16:00,
2013-03-06 18:21:00,44.8,21.9,29.97,SE,135,1.0,4.0,40,0.00,,,0.00,meteohub,2013-03-07 01:21:00,
2013-03-06 18:26:00,44.2,21.6,29.97,ENE,68,0.0,4.0,40,0.00,,,0.00,meteohub,2013-03-07 01:26:00,
2013-03-06 18:31:00,43.9,21.7,29.97,NNE,22,1.0,4.0,41,0.00,,,0.00,meteohub,2013-03-07 01:31:00,
2013-03-06 18:36:00,43.7,21.6,30.00,ESE,112,0.0,2.0,41,0.00,,,0.00,meteohub,2013-03-07 01:36:00,
2013-03-06 18:41:00,43.3,21.2,30.00,SSE,158,2.0,2.0,41,0.00,,,0.00,meteohub,2013-03-07 01:41:00,
2013-03-06 18:46:00,43.0,21.6,30.00,SSE,158,0.0,3.0,42,0.00,,,0.00,meteohub,2013-03-07 01:46:00,
2013-03-06 18:51:00,42.8,21.4,29.97,NNE,22,2.0,3.0,42,0.00,,,0.00,meteohub,2013-03-07 01:51:00,
2013-03-06 18:56:00,42.3,21.4,29.97,North,0,1.0,4.0,43,0.00,,,0.00,meteohub,2013-03-07 01:56:00,
2013-03-06 19:01:00,41.9,21.0,29.97,WSW,248,0.0,4.0,43,0.00,,,0.00,meteohub,2013-03-07 02:01:00,
2013-03-06 19:06:00,41.5,20.8,29.97,WNW,292,3.0,4.0,43,0.00,,,0.00,meteohub,2013-03-07 02:06:00,
2013-03-06 19:11:00,41.4,20.7,29.97,NNW,338,0.0,3.0,43,0.00,,,0.00,meteohub,2013-03-07 02:11:00,
2013-03-06 19:16:00,40.8,20.7,29.97,NNE,22,3.0,3.0,44,0.00,,,0.00,meteohub,2013-03-07 02:16:00,
2013-03-06 19:21:00,40.5,20.8,29.97,NNW,338,2.0,4.0,45,0.00,,,0.00,meteohub,2013-03-07 02:21:00,
2013-03-06 19:26:00,40.1,20.5,29.97,North,0,1.0,4.0,45,0.00,,,0.00,meteohub,2013-03-07 02:26:00,
2013-03-06 19:32:00,39.7,20.7,29.97,NNW,338,3.0,4.0,46,0.00,,,0.00,meteohub,2013-03-07 02:32:00,
2013-03-06 19:37:00,39.0,20.5,29.97,NW,315,5.0,5.0,47,0.00,,,0.00,meteohub,2013-03-07 02:37:00,
2013-03-06 19:42:00,38.7,20.7,29.97,WNW,292,2.0,6.0,48,0.00,,,0.00,meteohub,2013-03-07 02:42:00,
2013-03-06 19:47:00,38.5,20.5,29.97,WNW,292,2.0,6.0,48,0.00,,,0.00,meteohub,2013-03-07 02:47:00,
2013-03-06 19:52:00,38.1,20.7,30.00,WNW,292,1.0,6.0,49,0.00,,,0.00,meteohub,2013-03-07 02:52:00,
2013-03-06 19:57:00,37.9,20.5,30.00,WNW,292,5.0,5.0,49,0.00,,,0.00,meteohub,2013-03-07 02:57:00,
2013-03-06 20:02:00,37.6,20.1,29.97,NNW,338,2.0,5.0,49,0.00,,,0.00,meteohub,2013-03-07 03:02:00,
2013-03-06 20:07:00,37.6,20.7,29.97,WNW,292,2.0,5.0,50,0.00,,,0.00,meteohub,2013-03-07 03:07:00,
2013-03-06 20:12:00,37.4,20.5,29.97,NNE,22,2.0,5.0,50,0.00,,,0.00,meteohub,2013-03-07 03:12:00,
2013-03-06 20:17:00,37.2,20.3,29.97,NW,315,2.0,3.0,50,0.00,,,0.00,meteohub,2013-03-07 03:17:00,
2013-03-06 20:22:00,36.9,19.9,29.97,NW,315,3.0,3.0,50,0.00,,,0.00,meteohub,2013-03-07 03:22:00,
2013-03-06 20:27:00,36.7,20.3,29.97,NNW,338,2.0,4.0,51,0.00,,,0.00,meteohub,2013-03-07 03:27:00,
2013-03-06 20:32:00,36.7,20.3,29.97,NNW,338,3.0,4.0,51,0.00,,,0.00,meteohub,2013-03-07 03:32:00,
2013-03-06 20:37:00,36.3,19.9,29.97,NNW,338,3.0,4.0,51,0.00,,,0.00,meteohub,2013-03-07 03:37:00,
2013-03-06 20:42:00,36.3,20.5,29.97,NNW,338,3.0,4.0,52,0.00,,,0.00,meteohub,2013-03-07 03:42:00,
2013-03-06 20:47:00,36.1,20.3,29.97,WNW,292,3.0,5.0,52,0.00,,,0.00,meteohub,2013-03-07 03:47:00,
2013-03-06 20:52:00,36.1,20.3,29.97,North,0,4.0,5.0,52,0.00,,,0.00,meteohub,2013-03-07 03:52:00,
2013-03-06 20:57:00,35.8,20.3,29.97,NNE,22,6.0,6.0,53,0.00,,,0.00,meteohub,2013-03-07 03:57:00,
2013-03-06 21:02:00,35.8,19.9,29.97,WNW,292,2.0,6.0,52,0.00,,,0.00,meteohub,2013-03-07 04:02:00,
2013-03-06 21:07:00,35.6,19.8,29.97,ENE,68,2.0,6.0,52,0.00,,,0.00,meteohub,2013-03-07 04:07:00,
2013-03-06 21:12:00,35.6,19.8,29.97,WSW,248,4.0,6.0,52,0.00,,,0.00,meteohub,2013-03-07 04:12:00,
2013-03-06 21:17:00,35.6,20.1,29.97,NNE,22,1.0,5.0,53,0.00,,,0.00,meteohub,2013-03-07 04:17:00,
2013-03-06 21:22:00,35.6,20.1,29.97,ENE,68,0.0,5.0,53,0.00,,,0.00,meteohub,2013-03-07 04:22:00,
2013-03-06 21:27:00,35.4,20.1,29.97,WNW,292,2.0,5.0,53,0.00,,,0.00,meteohub,2013-03-07 04:27:00,
2013-03-06 21:32:00,35.4,20.5,29.97,North,0,1.0,3.0,54,0.00,,,0.00,meteohub,2013-03-07 04:32:00,
2013-03-06 21:37:00,35.2,19.9,29.97,South,180,0.0,4.0,53,0.00,,,0.00,meteohub,2013-03-07 04:37:00,
2013-03-06 21:42:00,35.1,20.1,29.97,West,270,4.0,4.0,54,0.00,,,0.00,meteohub,2013-03-07 04:42:00,
2013-03-06 21:47:00,35.1,20.1,29.97,WNW,292,4.0,4.0,54,0.00,,,0.00,meteohub,2013-03-07 04:47:00,
2013-03-06 21:52:00,35.1,20.1,29.97,WNW,292,3.0,4.0,54,0.00,,,0.00,meteohub,2013-03-07 04:52:00,
2013-03-06 21:57:00,35.2,20.3,29.97,WNW,292,3.0,4.0,54,0.00,,,0.00,meteohub,2013-03-07 04:57:00,
2013-03-06 22:00:00,35.4,20.5,29.97,WNW,292,3.0,4.0,54,0.00,,,0.00,meteohub,2013-03-07 05:00:00,
2013-03-06 22:01:00,35.4,20.5,29.97,NNW,338,3.0,4.0,54,0.00,,,0.00,meteohub,2013-03-07 05:01:00,
2013-03-06 22:05:00,35.4,20.5,29.97,WNW,292,3.0,4.0,54,0.00,,,0.00,meteohub,2013-03-07 05:05:00,
2013-03-06 22:10:00,35.6,20.1,29.97,NNW,338,4.0,6.0,53,0.00,,,0.00,meteohub,2013-03-07 05:10:00,
2013-03-06 22:15:00,35.6,20.1,29.97,NNW,338,1.0,6.0,53,0.00,,,0.00,meteohub,2013-03-07 05:15:00,
2013-03-06 22:20:00,35.4,20.1,29.97,NW,315,3.0,4.0,53,0.00,,,0.00,meteohub,2013-03-07 05:20:00,
2013-03-06 22:25:00,35.4,20.1,29.97,NNW,338,4.0,4.0,53,0.00,,,0.00,meteohub,2013-03-07 05:25:00,
2013-03-06 22:30:00,35.4,20.1,29.97,NNE,22,2.0,4.0,53,0.00,,,0.00,meteohub,2013-03-07 05:30:00,
2013-03-06 22:35:00,35.4,20.1,29.94,WNW,292,5.0,5.0,53,0.00,,,0.00,meteohub,2013-03-07 05:35:00,
2013-03-06 22:40:00,35.6,20.1,29.94,NW,315,4.0,7.0,53,0.00,,,0.00,meteohub,2013-03-07 05:40:00,
2013-03-06 22:45:00,35.6,20.1,29.94,WNW,292,6.0,7.0,53,0.00,,,0.00,meteohub,2013-03-07 05:45:00,
2013-03-06 22:50:00,35.8,20.3,29.94,NNW,338,2.0,7.0,53,0.00,,,0.00,meteohub,2013-03-07 05:50:00,
2013-03-06 22:55:00,35.8,20.3,29.94,NNW,338,3.0,6.0,53,0.00,,,0.00,meteohub,2013-03-07 05:55:00,
2013-03-06 23:00:00,35.6,20.1,29.94,NNW,338,0.0,6.0,53,0.00,,,0.00,meteohub,2013-03-07 06:00:00,
2013-03-06 23:05:00,35.6,20.1,29.97,NNW,338,2.0,4.0,53,0.00,,,0.00,meteohub,2013-03-07 06:05:00,
2013-03-06 23:10:00,35.4,20.1,29.97,WNW,292,2.0,4.0,53,0.00,,,0.00,meteohub,2013-03-07 06:10:00,
2013-03-06 23:15:00,35.2,19.9,29.97,North,0,2.0,3.0,53,0.00,,,0.00,meteohub,2013-03-07 06:15:00,
2013-03-06 23:20:00,35.1,19.8,29.94,SSE,158,4.0,4.0,53,0.00,,,0.00,meteohub,2013-03-07 06:20:00,
2013-03-06 23:25:00,34.3,18.5,29.94,SE,135,0.0,5.0,52,0.00,,,0.00,meteohub,2013-03-07 06:25:00,
2013-03-06 23:30:00,34.3,19.0,29.94,ESE,112,3.0,5.0,53,0.00,,,0.00,meteohub,2013-03-07 06:30:00,
2013-03-06 23:35:00,33.8,18.1,29.97,South,180,2.0,5.0,52,0.00,,,0.00,meteohub,2013-03-07 06:35:00,
2013-03-06 23:41:00,33.4,18.1,29.97,SSW,202,0.0,4.0,53,0.00,,,0.00,meteohub,2013-03-07 06:41:00,
2013-03-06 23:46:00,33.3,18.0,29.97,SSE,158,1.0,4.0,53,0.00,,,0.00,meteohub,2013-03-07 06:46:00,
2013-03-06 23:51:00,33.3,18.5,29.97,ESE,112,3.0,4.0,54,0.00,,,0.00,meteohub,2013-03-07 06:51:00,
2013-03-06 23:56:00,33.1,18.3,29.97,NNE,22,0.0,4.0,54,0.00,,,0.00,meteohub,2013-03-07 06:56:00,